DBBB/COO METAR and TAF weather

Enter ICAO airport designator
Station Type Date Time Source
DBBB METAR 2019/02/21 11:00 UTC NOAA

DBBB 211100Z 25010KT 9999 FEW012 FEW023CB 32/26 Q1012 TEMPO TS


Station Type Date Time Source
DBBB Decoded METAR 2019/02/21 11:00 UTC NOAA

Cotonou, Benin (DBBB) 06-21N 002-23E 9M
Feb 21, 2019 - 06:00 AM EST / 2019.02.21 1100 UTC
Wind: from the WSW (250 degrees) at 12 MPH (10 KT):0
Visibility: greater than 7 mile(s):0
Sky conditions: mostly clear
Weather: Cumulonimbus clouds observed
Temperature: 89 F (32 C)
Heat index: 102.9 F (39.4 C):1
Dew Point: 78 F (26 C)
Relative Humidity: 70%
Pressure (altimeter): 29.88 in. Hg (1012 hPa)
ob: DBBB 211100Z 25010KT 9999 FEW012 FEW023CB 32/26 Q1012 TEMPO TS
cycle: 11

Station Type Date Time Source
DBBB TAF 2019/02/21 12:21 UTC NOAA

TAF TAF DBBB 211100Z 2112/2218 22010KT 8000 SCT013
TEMPO 2112/2119 TS BKN012 FEW023CB PROB30 4000 TSRA
TEMPO 2204/2209 34003KT 3000 BR


Example: see airport list